createdAt,value
2018-06-21T00:48:52.227Z,8.55
2018-06-21T00:51:24.033Z,9.70
2018-06-21T00:53:56.181Z,7.68
2018-06-21T00:56:30.919Z,5.65
2018-06-21T00:59:04.020Z,6.30
2018-06-21T01:01:36.585Z,4.62
2018-06-21T01:04:08.345Z,6.93
2018-06-21T01:06:43.131Z,6.72
2018-06-21T01:09:16.321Z,7.72
2018-06-21T01:11:49.300Z,8.88
2018-06-21T01:14:24.023Z,5.15
2018-06-21T01:16:58.983Z,7.40
2018-06-21T01:19:33.569Z,7.57
2018-06-21T01:22:05.437Z,6.62
2018-06-21T01:24:39.058Z,8.75
2018-06-21T01:27:09.147Z,12.80
2018-06-21T01:29:44.361Z,11.15
2018-06-21T01:32:17.659Z,10.63
2018-06-21T01:34:50.745Z,9.57
2018-06-21T01:37:22.438Z,11.68
2018-06-21T01:39:57.321Z,9.25
2018-06-21T01:42:30.872Z,13.35
2018-06-21T01:45:04.278Z,11.73
2018-06-21T01:47:36.432Z,12.37
2018-06-21T01:50:08.927Z,11.77
2018-06-21T01:52:40.780Z,13.50
2018-06-21T01:55:10.475Z,12.75
2018-06-21T01:57:43.684Z,16.35
2018-06-21T02:00:13.884Z,17.50
2018-06-21T02:02:48.331Z,15.07
2018-06-21T02:05:20.093Z,18.62
2018-06-21T02:07:50.237Z,19.65
2018-06-21T02:10:22.439Z,25.67
2018-06-21T02:12:54.202Z,25.42
2018-06-21T02:15:26.003Z,27.42
2018-06-21T02:17:56.192Z,29.05
2018-06-21T02:20:30.906Z,31.77
2018-06-21T02:23:02.708Z,30.48
2018-06-21T02:25:34.421Z,30.10
2018-06-21T02:28:06.282Z,27.73
2018-06-21T02:30:41.389Z,29.48
2018-06-21T02:33:14.523Z,33.53
2018-06-21T02:35:49.282Z,36.78
2018-06-21T02:38:22.556Z,40.65
2018-06-21T02:40:55.853Z,39.42
2018-06-21T02:43:27.561Z,39.33
2018-06-21T02:46:00.914Z,37.42
2018-06-21T02:48:32.949Z,40.42
2018-06-21T02:51:04.580Z,37.45
2018-06-21T02:53:37.099Z,37.30
2018-06-21T02:56:09.062Z,40.25
2018-06-21T02:58:40.884Z,41.63
2018-06-21T03:01:14.806Z,42.67
2018-06-21T03:03:47.660Z,35.15
2018-06-21T03:06:19.423Z,36.60
2018-06-21T03:08:50.386Z,40.47
2018-06-21T03:11:20.411Z,45.35
2018-06-21T03:13:53.366Z,37.45
2018-06-21T03:16:26.738Z,39.88
2018-06-21T03:19:00.291Z,43.75
2018-06-21T03:21:31.910Z,45.38
2018-06-21T03:24:03.918Z,46.28
2018-06-21T03:26:35.512Z,43.00
2018-06-21T03:29:09.109Z,41.65
2018-06-21T03:31:42.353Z,44.33
2018-06-21T03:34:15.692Z,48.03
2018-06-21T03:36:47.325Z,39.20
2018-06-21T03:39:22.073Z,43.97
2018-06-21T03:41:53.781Z,46.85
2018-06-21T03:44:25.465Z,38.40
2018-06-21T03:46:57.064Z,41.97
2018-06-21T03:49:26.835Z,42.90
2018-06-21T03:52:00.302Z,43.70
2018-06-21T03:54:32.273Z,36.40
2018-06-21T03:57:04.452Z,40.42
2018-06-21T03:59:39.318Z,42.33
2018-06-21T04:02:14.006Z,33.72
2018-06-21T04:04:47.605Z,36.35
2018-06-21T04:07:22.314Z,32.65
2018-06-21T04:09:57.172Z,36.08
2018-06-21T04:12:29.918Z,35.70
2018-06-21T04:15:04.549Z,31.08
2018-06-21T04:17:39.682Z,30.33
2018-06-21T04:20:12.964Z,39.20
2018-06-21T04:22:48.557Z,35.50
2018-06-21T04:25:21.833Z,30.73
2018-06-21T04:27:56.686Z,29.42
2018-06-21T04:30:31.450Z,27.77
2018-06-21T04:33:03.304Z,31.30
2018-06-21T04:35:36.487Z,32.53
2018-06-21T04:38:08.642Z,28.05
2018-06-21T04:40:42.063Z,25.92
2018-06-21T04:43:16.797Z,25.30
2018-06-21T04:45:52.043Z,25.25
2018-06-21T04:48:23.924Z,22.98
2018-06-21T04:50:56.194Z,19.33
2018-06-21T04:53:28.199Z,19.52
2018-06-21T04:56:02.962Z,17.17
2018-06-21T04:58:37.534Z,12.52
2018-06-21T05:01:09.078Z,12.80
2018-06-21T05:03:40.934Z,9.95
2018-06-21T05:06:15.471Z,5.65
2018-06-21T05:08:50.355Z,8.82
2018-06-21T05:11:22.163Z,7.30
2018-06-21T05:13:52.367Z,8.20
2018-06-21T05:16:27.159Z,6.62
2018-06-21T05:19:01.892Z,10.25
2018-06-21T05:21:36.780Z,9.35
2018-06-21T05:24:11.779Z,10.23
2018-06-21T05:26:42.447Z,6.45
2018-06-21T05:29:16.471Z,10.80
2018-06-21T05:31:49.632Z,10.25
2018-06-21T05:34:23.571Z,7.87
2018-06-21T05:36:56.612Z,8.25
2018-06-21T05:39:28.360Z,11.45
2018-06-21T05:42:03.172Z,9.80
2018-06-21T05:44:34.832Z,7.05
2018-06-21T05:47:07.790Z,4.47
2018-06-21T05:49:40.887Z,6.80
2018-06-21T05:52:11.036Z,10.88
2018-06-21T05:54:42.907Z,8.93
2018-06-21T05:57:16.213Z,5.70
2018-06-21T05:59:48.719Z,10.88
2018-06-21T06:02:20.803Z,6.25
2018-06-21T06:04:52.315Z,9.52
2018-06-21T06:07:23.865Z,6.97
2018-06-21T06:09:56.123Z,6.50
2018-06-21T06:12:30.600Z,8.90
2018-06-21T06:15:05.125Z,13.57
2018-06-21T06:17:38.186Z,9.50
2018-06-21T06:20:12.909Z,11.73
2018-06-21T06:22:44.643Z,9.45
2018-06-21T06:25:19.523Z,8.55
2018-06-21T06:27:50.081Z,12.65
2018-06-21T06:30:21.832Z,8.25
2018-06-21T06:32:56.392Z,9.93
2018-06-21T06:35:32.675Z,11.88
2018-06-21T06:38:04.210Z,6.50
2018-06-21T06:40:38.647Z,10.32
2018-06-21T06:43:10.572Z,10.10
2018-06-21T06:45:45.095Z,6.93
2018-06-21T06:48:17.449Z,8.35
2018-06-21T06:50:50.443Z,5.20
2018-06-21T06:53:23.634Z,12.05
2018-06-21T06:55:56.975Z,9.68
2018-06-21T06:58:28.692Z,6.47
2018-06-21T07:01:01.857Z,4.50
2018-06-21T07:03:33.439Z,5.20
2018-06-21T07:06:06.814Z,10.02
2018-06-21T07:08:39.957Z,10.73
2018-06-21T07:11:11.683Z,6.53
2018-06-21T07:13:46.288Z,2.55
2018-06-21T07:16:17.723Z,6.05
2018-06-21T07:18:47.689Z,6.10
2018-06-21T07:21:19.330Z,3.35
2018-06-21T07:23:52.548Z,7.15
2018-06-21T07:26:24.103Z,5.90
2018-06-21T07:28:58.592Z,9.73
2018-06-21T07:31:33.121Z,7.85
2018-06-21T07:34:05.988Z,6.60
2018-06-21T07:36:40.862Z,6.68
2018-06-21T07:39:15.194Z,9.00
2018-06-21T07:41:48.160Z,6.75
2018-06-21T07:44:22.802Z,7.20
2018-06-21T07:46:56.186Z,10.57
2018-06-21T07:49:29.112Z,7.47
2018-06-21T07:52:00.432Z,12.40
2018-06-21T07:54:33.483Z,11.43
2018-06-21T07:57:05.699Z,14.13
2018-06-21T07:59:38.444Z,10.15
2018-06-21T08:02:10.075Z,7.43
2018-06-21T08:04:44.706Z,8.40
2018-06-21T08:07:17.656Z,9.80
2018-06-21T08:09:50.981Z,9.10
2018-06-21T08:12:21.002Z,6.18
2018-06-21T08:14:55.517Z,3.90
2018-06-21T08:17:25.634Z,7.18
2018-06-21T08:19:59.084Z,5.07
2018-06-21T08:22:33.601Z,6.95
2018-06-21T08:25:07.696Z,8.90
2018-06-21T08:27:39.133Z,10.43
2018-06-21T08:30:11.096Z,9.07
2018-06-21T08:32:45.480Z,6.35
2018-06-21T08:35:18.646Z,10.27
2018-06-21T08:37:51.503Z,6.18
2018-06-21T08:40:24.559Z,9.25
2018-06-21T08:42:56.216Z,9.55
2018-06-21T08:45:27.552Z,7.22
2018-06-21T08:48:00.537Z,5.95
2018-06-21T08:50:33.892Z,10.02
2018-06-21T08:53:06.410Z,6.85
2018-06-21T08:55:39.329Z,6.25
2018-06-21T08:58:13.547Z,8.02
2018-06-21T09:00:46.669Z,8.55
2018-06-21T09:03:18.027Z,13.45
2018-06-21T09:05:50.944Z,5.85
2018-06-21T09:08:23.956Z,8.88
2018-06-21T09:10:58.382Z,6.32
2018-06-21T09:13:40.010Z,5.55
2018-06-21T09:16:12.539Z,10.18
2018-06-21T09:18:46.945Z,11.45
2018-06-21T09:21:18.141Z,4.43
2018-06-21T09:23:50.390Z,6.00
2018-06-21T09:26:22.632Z,3.85
2018-06-21T09:28:51.943Z,5.07
2018-06-21T09:31:24.870Z,7.30
2018-06-21T09:33:56.889Z,8.02
2018-06-21T09:36:28.028Z,6.30
2018-06-21T09:39:17.095Z,8.25
2018-06-21T09:42:06.338Z,6.87
2018-06-21T09:44:56.735Z,4.45
2018-06-21T09:47:45.594Z,4.75
2018-06-21T09:50:20.302Z,9.98
2018-06-21T09:52:53.243Z,8.10
2018-06-21T09:55:24.717Z,4.85
2018-06-21T09:57:57.523Z,7.62
2018-06-21T10:00:45.606Z,9.20
2018-06-21T10:03:17.607Z,10.23
2018-06-21T10:05:49.937Z,9.38
2018-06-21T10:08:24.395Z,7.25
2018-06-21T10:10:56.284Z,4.65
2018-06-21T10:13:27.845Z,7.70
2018-06-21T10:16:00.732Z,11.18
2018-06-21T10:18:33.628Z,7.68
2018-06-21T10:21:05.636Z,10.15
2018-06-21T10:23:38.062Z,7.95
2018-06-21T10:26:07.970Z,7.30
2018-06-21T10:28:39.416Z,7.80
2018-06-21T10:31:12.399Z,7.68
2018-06-21T10:33:43.819Z,13.50
2018-06-21T10:36:17.757Z,9.55
2018-06-21T10:38:52.210Z,14.90
2018-06-21T10:41:25.204Z,5.95
2018-06-21T10:43:59.019Z,6.12
2018-06-21T10:46:35.457Z,7.18
2018-06-21T10:49:06.938Z,4.95
2018-06-21T10:51:40.308Z,7.07
2018-06-21T10:54:11.853Z,7.32
2018-06-21T10:56:46.446Z,8.18
2018-06-21T10:59:19.428Z,7.57
2018-06-21T11:01:52.620Z,2.80
2018-06-21T11:04:25.544Z,4.10
2018-06-21T11:06:58.522Z,8.93
2018-06-21T11:09:29.864Z,12.82
2018-06-21T11:12:01.319Z,10.10
2018-06-21T11:14:35.633Z,7.43
2018-06-21T11:17:07.189Z,6.50
2018-06-21T11:19:36.355Z,6.90
2018-06-21T11:22:10.768Z,10.75
2018-06-21T11:24:43.753Z,7.50
2018-06-21T11:27:18.246Z,9.63
2018-06-21T11:29:49.796Z,6.20
2018-06-21T11:32:20.708Z,7.20
2018-06-21T11:34:53.600Z,4.75
2018-06-21T11:37:24.513Z,6.82
2018-06-21T11:39:58.895Z,10.48
2018-06-21T11:42:31.844Z,17.12
2018-06-21T11:45:03.591Z,9.43
2018-06-21T11:47:36.688Z,8.15
2018-06-21T11:50:08.254Z,10.35
2018-06-21T11:52:41.260Z,10.25
2018-06-21T11:55:15.781Z,11.35
2018-06-21T11:57:48.693Z,7.32
2018-06-21T12:00:20.101Z,6.70
2018-06-21T12:02:54.597Z,8.63
2018-06-21T12:05:25.995Z,12.98
2018-06-21T12:07:59.055Z,6.30
2018-06-21T12:10:29.810Z,9.73
2018-06-21T12:13:04.074Z,8.18
2018-06-21T12:15:39.398Z,5.05
2018-06-21T12:18:10.972Z,7.35
2018-06-21T12:20:40.085Z,5.30
2018-06-21T12:23:12.277Z,8.10
2018-06-21T12:25:45.384Z,9.55
2018-06-21T12:28:18.942Z,8.15
2018-06-21T12:30:51.941Z,9.30
2018-06-21T12:33:21.883Z,7.82
2018-06-21T12:35:54.858Z,5.43
2018-06-21T12:38:26.412Z,11.25
2018-06-21T12:41:00.963Z,6.35
2018-06-21T12:43:33.812Z,6.93
2018-06-21T12:46:09.766Z,6.57
2018-06-21T12:48:42.741Z,11.15
2018-06-21T12:51:14.986Z,5.22
2018-06-21T12:53:45.449Z,6.12
2018-06-21T12:56:18.672Z,8.95
2018-06-21T12:58:50.797Z,8.30
2018-06-21T13:01:23.629Z,5.15
2018-06-21T13:03:55.039Z,5.05
2018-06-21T13:06:26.950Z,6.53
2018-06-21T13:09:32.861Z,12.90
2018-06-21T13:12:44.284Z,8.43
2018-06-21T13:15:17.299Z,7.20
2018-06-21T13:17:47.238Z,9.88
2018-06-21T13:20:17.261Z,8.35
2018-06-21T13:22:49.251Z,5.30
2018-06-21T13:25:23.465Z,5.90
2018-06-21T13:27:52.654Z,8.85
2018-06-21T13:30:28.090Z,5.25
2018-06-21T13:33:01.108Z,8.40
2018-06-21T13:35:32.598Z,6.05
2018-06-21T13:38:02.621Z,7.50
2018-06-21T13:40:33.971Z,5.37
2018-06-21T13:43:08.409Z,6.93
2018-06-21T13:45:39.789Z,4.47
2018-06-21T13:48:14.304Z,6.82
2018-06-21T13:50:45.779Z,10.70
2018-06-21T13:53:18.685Z,5.82
2018-06-21T13:55:49.027Z,7.97
2018-06-21T13:58:23.654Z,5.82
2018-06-21T14:00:58.400Z,9.32
2018-06-21T14:03:29.325Z,9.95
2018-06-21T14:06:01.475Z,12.55
2018-06-21T14:08:36.216Z,8.27
2018-06-21T14:11:09.516Z,7.12
2018-06-21T14:13:42.835Z,9.48
2018-06-21T14:16:14.891Z,6.45
2018-06-21T14:18:47.836Z,5.35
2018-06-21T14:21:19.246Z,6.60
2018-06-21T14:23:54.012Z,8.00
2018-06-21T14:26:25.931Z,12.40
2018-06-21T14:28:57.765Z,8.97
2018-06-21T14:31:31.059Z,6.40
2018-06-21T14:34:02.602Z,7.00
2018-06-21T14:36:37.535Z,2.62
2018-06-21T14:39:11.210Z,5.47
2018-06-21T14:41:46.075Z,8.20
2018-06-21T14:44:17.518Z,9.73
2018-06-21T14:46:50.535Z,5.62
2018-06-21T14:49:23.750Z,8.15
2018-06-21T14:51:56.669Z,6.25
2018-06-21T14:54:28.165Z,10.80
2018-06-21T14:57:00.935Z,9.57
2018-06-21T14:59:34.650Z,5.93
2018-06-21T15:02:06.252Z,6.15
2018-06-21T15:04:39.689Z,6.90
2018-06-21T15:07:11.407Z,11.07
2018-06-21T15:09:45.855Z,9.80
2018-06-21T15:12:18.788Z,9.15
2018-06-21T15:14:52.056Z,11.00
2018-06-21T15:17:24.959Z,4.22
2018-06-21T15:19:57.327Z,13.85
2018-06-21T15:22:27.556Z,4.53
2018-06-21T15:25:03.300Z,10.68
2018-06-21T15:27:35.069Z,8.20
2018-06-21T15:30:08.048Z,3.85
2018-06-21T15:32:39.539Z,5.55
2018-06-21T15:35:12.446Z,8.15
2018-06-21T15:37:45.477Z,10.65
2018-06-21T15:40:18.615Z,10.48
2018-06-21T15:42:49.975Z,5.43
2018-06-21T15:45:20.064Z,8.98
2018-06-21T15:47:50.827Z,7.37
2018-06-21T15:50:23.864Z,8.90
2018-06-21T15:52:55.381Z,11.18
2018-06-21T15:55:30.534Z,8.77
2018-06-21T15:58:02.597Z,14.43
2018-06-21T16:00:32.540Z,8.52
2018-06-21T16:03:06.950Z,10.30
2018-06-21T16:05:39.386Z,12.05
2018-06-21T16:08:09.236Z,9.02
2018-06-21T16:10:43.613Z,5.75
2018-06-21T16:13:17.536Z,11.38
2018-06-21T16:15:52.090Z,5.30
2018-06-21T16:18:24.935Z,9.80
2018-06-21T16:20:55.538Z,8.18
2018-06-21T16:23:27.022Z,9.98
2018-06-21T16:26:00.120Z,9.00
2018-06-21T16:28:31.616Z,11.15
2018-06-21T16:31:02.483Z,12.68
2018-06-21T16:33:32.493Z,9.93
2018-06-21T16:36:05.427Z,5.97
2018-06-21T16:38:39.896Z,10.73
2018-06-21T16:41:12.224Z,9.20
2018-06-21T16:43:45.419Z,10.48
2018-06-21T16:46:18.276Z,7.93
2018-06-21T16:48:51.313Z,6.87
2018-06-21T16:51:22.840Z,11.75
2018-06-21T16:53:54.284Z,9.85
2018-06-21T16:56:28.978Z,7.93
2018-06-21T16:59:00.365Z,8.27
2018-06-21T17:01:32.478Z,10.43
2018-06-21T17:04:06.775Z,11.52
2018-06-21T17:06:38.396Z,10.77
2018-06-21T17:09:14.288Z,11.70
2018-06-21T17:11:47.209Z,15.32
2018-06-21T17:14:21.884Z,14.05
2018-06-21T17:16:55.105Z,9.82
2018-06-21T17:19:26.521Z,7.87
2018-06-21T17:21:56.856Z,11.10
2018-06-21T17:24:31.713Z,8.95
2018-06-21T17:27:04.284Z,11.45
2018-06-21T17:29:37.545Z,12.98
2018-06-21T17:32:11.984Z,11.50
2018-06-21T17:34:43.531Z,11.38
2018-06-21T17:37:16.476Z,8.95
2018-06-21T17:39:49.607Z,6.85
2018-06-21T17:42:19.528Z,5.78
2018-06-21T17:44:53.970Z,8.90
2018-06-21T17:47:25.422Z,12.48
2018-06-21T17:49:56.207Z,7.57
2018-06-21T17:52:27.704Z,6.47
2018-06-21T17:55:00.053Z,9.35
2018-06-21T17:57:33.573Z,9.25
2018-06-21T18:00:06.079Z,7.62
2018-06-21T18:02:37.619Z,6.93
2018-06-21T18:05:12.116Z,11.65
2018-06-21T18:07:45.143Z,7.65
2018-06-21T18:10:16.716Z,6.80
2018-06-21T18:12:49.602Z,4.00
2018-06-21T18:15:24.151Z,9.52
2018-06-21T18:17:57.117Z,5.57
2018-06-21T18:20:30.213Z,6.65
2018-06-21T18:23:03.184Z,5.70
2018-06-21T18:25:37.776Z,13.68
2018-06-21T18:28:12.632Z,5.12
2018-06-21T18:30:47.187Z,10.50
2018-06-21T18:33:20.074Z,9.30
2018-06-21T18:35:54.626Z,5.00
2018-06-21T18:38:27.524Z,11.43
2018-06-21T18:41:00.616Z,7.97
2018-06-21T18:43:33.723Z,10.85
2018-06-21T18:46:08.116Z,9.13
2018-06-21T18:48:39.687Z,8.45
2018-06-21T18:51:11.285Z,12.32
2018-06-21T18:53:45.211Z,8.68
2018-06-21T18:56:19.734Z,10.00
2018-06-21T18:58:51.452Z,9.18
2018-06-21T19:01:23.490Z,15.93
2018-06-21T19:03:58.132Z,11.25
2018-06-21T19:06:49.004Z,13.90
2018-06-21T19:09:39.804Z,13.50
2018-06-21T19:12:12.972Z,7.72
2018-06-21T19:14:48.367Z,8.10
2018-06-21T19:17:22.871Z,12.95
2018-06-21T19:19:57.208Z,13.05
2018-06-21T19:22:28.826Z,8.95
2018-06-21T19:25:01.672Z,9.57
2018-06-21T19:27:33.276Z,7.72
2018-06-21T19:30:06.206Z,5.22
2018-06-21T19:32:40.879Z,12.98
2018-06-21T19:35:13.777Z,13.95
2018-06-21T19:37:48.489Z,7.15
2018-06-21T19:40:18.466Z,11.63
2018-06-21T19:42:52.923Z,9.18
2018-06-21T19:45:25.958Z,10.40
2018-06-21T19:48:00.838Z,12.07
2018-06-21T19:50:35.513Z,8.25
2018-06-21T19:53:09.902Z,8.48
2018-06-21T19:55:43.037Z,7.97
2018-06-21T19:58:17.434Z,11.23
2018-06-21T20:00:50.360Z,8.85
2018-06-21T20:03:24.858Z,14.10
2018-06-21T20:05:55.027Z,9.00
2018-06-21T20:08:28.169Z,5.28
2018-06-21T20:11:17.087Z,12.30
2018-06-21T20:13:50.055Z,8.77
2018-06-21T20:16:24.197Z,14.70
2018-06-21T20:18:55.901Z,10.55
2018-06-21T20:21:27.669Z,11.18
2018-06-21T20:23:59.251Z,8.27
2018-06-21T20:26:30.213Z,11.80
2018-06-21T20:29:01.384Z,5.78
2018-06-21T20:31:34.380Z,7.15
2018-06-21T20:34:08.043Z,11.82
2018-06-21T20:36:39.670Z,7.80
2018-06-21T20:39:12.725Z,7.95
2018-06-21T20:41:47.196Z,5.00
2018-06-21T20:44:21.719Z,11.60
2018-06-21T20:46:53.640Z,6.47
2018-06-21T20:49:26.700Z,8.35
2018-06-21T20:52:01.260Z,8.95
2018-06-21T20:54:35.943Z,14.55
2018-06-21T20:57:09.221Z,10.07
2018-06-21T20:59:44.328Z,11.55
2018-06-21T21:02:16.679Z,9.25
2018-06-21T21:05:15.417Z,7.62
2018-06-21T21:07:52.884Z,7.68
2018-06-21T21:10:25.932Z,5.45
2018-06-21T21:13:00.288Z,9.07
2018-06-21T21:15:32.082Z,11.35
2018-06-21T21:18:06.069Z,9.13
2018-06-21T21:20:37.674Z,12.25
2018-06-21T21:23:09.314Z,8.35
2018-06-21T21:25:42.242Z,9.07
2018-06-21T21:28:17.614Z,13.18
2018-06-21T21:30:49.663Z,12.20
2018-06-21T21:33:22.522Z,8.45
2018-06-21T21:35:53.947Z,10.15
2018-06-21T21:38:26.940Z,9.07
2018-06-21T21:40:59.854Z,11.40
2018-06-21T21:43:34.353Z,13.40
2018-06-21T21:46:08.704Z,9.32
2018-06-21T21:48:41.860Z,15.15
2018-06-21T21:51:15.902Z,9.68
2018-06-21T21:53:49.123Z,11.73
2018-06-21T21:56:22.389Z,6.10
2018-06-21T21:58:55.589Z,5.22
2018-06-21T22:01:27.025Z,9.25
2018-06-21T22:04:00.848Z,10.95
2018-06-21T22:06:32.393Z,12.13
2018-06-21T22:09:03.943Z,9.02
2018-06-21T22:11:36.097Z,6.78
2018-06-21T22:14:09.133Z,13.15
2018-06-21T22:16:43.230Z,7.25
2018-06-21T22:19:15.465Z,7.43
2018-06-21T22:21:48.951Z,6.97
2018-06-21T22:24:23.357Z,14.30
2018-06-21T22:26:56.397Z,8.32
2018-06-21T22:29:29.463Z,8.15
2018-06-21T22:31:59.620Z,12.32
2018-06-21T22:34:34.060Z,8.32
2018-06-21T22:37:06.860Z,7.82
2018-06-21T22:39:39.750Z,7.87
2018-06-21T22:42:13.034Z,7.35
2018-06-21T22:44:47.576Z,7.75
2018-06-21T22:47:16.714Z,11.75
2018-06-21T22:49:49.787Z,5.82
2018-06-21T22:52:24.236Z,6.55
2018-06-21T22:54:57.152Z,8.00
2018-06-21T22:57:31.728Z,6.82
2018-06-21T23:00:04.755Z,8.35
2018-06-21T23:02:39.554Z,7.97
2018-06-21T23:05:13.948Z,9.77
2018-06-21T23:07:45.805Z,11.00
2018-06-21T23:10:18.805Z,11.30
2018-06-21T23:12:53.251Z,8.82
2018-06-21T23:15:24.292Z,13.85
2018-06-21T23:17:57.491Z,7.18
2018-06-21T23:20:27.517Z,9.18
2018-06-21T23:23:00.538Z,9.13
2018-06-21T23:25:32.067Z,11.57
2018-06-21T23:28:03.676Z,13.95
2018-06-21T23:30:37.642Z,11.48
2018-06-21T23:33:12.072Z,15.23
2018-06-21T23:35:43.672Z,13.10
2018-06-21T23:38:18.212Z,7.93
2018-06-21T23:40:49.969Z,11.60
2018-06-21T23:43:20.644Z,11.38
2018-06-21T23:45:52.761Z,12.45
2018-06-21T23:48:25.823Z,13.88
2018-06-21T23:50:55.697Z,8.93
2018-06-21T23:53:28.599Z,7.50
2018-06-21T23:56:01.054Z,7.47
2018-06-21T23:58:34.258Z,8.20
